Time;durP1;ratioP1;P1;durP2;ratioP2;P2;SDS_P1;SDS_P2;PMS_P1;PMS_P2;Temp;Humidity;BMP_temperature;BMP_pressure;BME280_temperature;BME280_humidity;BME280_pressure;Samples;Min_cycle;Max_cycle;Signal;HPM_P1;HPM_P2
2023/02/21 02:14:57;;;;;;;;;56.00;40.50;;;;;;;;5080660;27;51210;-52
2023/02/21 02:17:54;;;;;;;;;62.50;46.00;;;;;;;;5072473;27;51173;-50
2023/02/21 02:20:56;;;;;;;;;72.25;48.75;;;;;;;;5076466;27;51224;-52
2023/02/21 02:23:46;;;;;;;;;66.75;46.00;;;;;;;;5075023;27;51327;-51
2023/02/21 02:26:48;;;;;;;;;63.75;45.00;;;;;;;;5079137;27;51327;-50
2023/02/21 02:29:47;;;;;;;;;72.00;49.50;;;;;;;;5074867;27;51141;-55
2023/02/21 02:32:34;;;;;;;;;68.50;47.75;;;;;;;;5079826;27;51023;-51
2023/02/21 02:35:28;;;;;;;;;70.50;46.50;;;;;;;;5080679;27;51043;-55
2023/02/21 02:38:24;;;;;;;;;59.50;45.50;;;;;;;;5080035;27;51067;-53
2023/02/21 02:41:16;;;;;;;;;62.75;46.50;;;;;;;;5079947;27;50992;-51
2023/02/21 02:44:08;;;;;;;;;67.00;46.50;;;;;;;;5069053;27;51355;-52
2023/02/21 02:46:55;;;;;;;;;67.75;48.00;;;;;;;;5080665;27;51122;-51
2023/02/21 02:49:41;;;;;;;;;67.75;47.25;;;;;;;;5079934;27;51542;-52
2023/02/21 02:52:25;;;;;;;;;65.75;44.75;;;;;;;;5098474;27;51123;-54
2023/02/21 02:55:45;;;;;;;;;69.75;48.25;;;;;;;;5078965;27;51773;-50
2023/02/21 02:58:36;;;;;;;;;64.75;44.75;;;;;;;;4999664;28;51174;-53
2023/02/21 03:01:39;;;;;;;;;64.75;47.50;;;;;;;;5067647;27;52744;-51
2023/02/21 03:04:41;;;;;;;;;68.00;47.75;;;;;;;;5071929;27;51458;-53
2023/02/21 03:07:44;;;;;;;;;70.75;47.50;;;;;;;;5079797;27;51163;-51
2023/02/21 03:10:43;;;;;;;;;69.50;47.50;;;;;;;;5079171;27;51167;-52
2023/02/21 03:13:30;;;;;;;;;65.50;47.00;;;;;;;;5070047;27;51196;-51
2023/02/21 03:16:24;;;;;;;;;60.50;47.25;;;;;;;;5075953;27;51063;-53
2023/02/21 03:19:16;;;;;;;;;70.00;48.75;;;;;;;;5079669;27;51083;-49
2023/02/21 03:22:06;;;;;;;;;69.25;47.75;;;;;;;;5053779;28;51084;-49
2023/02/21 03:24:51;;;;;;;;;63.50;46.50;;;;;;;;5059391;28;51233;-52
2023/02/21 03:27:38;;;;;;;;;64.50;48.00;;;;;;;;5065153;28;51146;-50
2023/02/21 03:30:22;;;;;;;;;13.25;10.25;;;;;;;;5062024;28;51428;-50
2023/02/21 03:33:06;;;;;;;;;68.50;46.25;;;;;;;;5049695;28;51099;-55
2023/02/21 03:35:52;;;;;;;;;62.00;45.75;;;;;;;;5046570;28;51132;-50
2023/02/21 03:38:37;;;;;;;;;64.50;46.25;;;;;;;;5054280;28;51320;-50
2023/02/21 03:41:21;;;;;;;;;63.75;44.75;;;;;;;;5059004;28;51455;-50
2023/02/21 03:44:05;;;;;;;;;66.00;47.75;;;;;;;;5061760;28;51139;-55
2023/02/21 03:46:50;;;;;;;;;63.75;46.00;;;;;;;;5059394;28;51649;-52
2023/02/21 03:49:34;;;;;;;;;67.50;48.00;;;;;;;;5048564;28;51539;-50
2023/02/21 03:52:19;;;;;;;;;70.00;48.50;;;;;;;;5059296;28;51169;-50
2023/02/21 03:55:03;;;;;;;;;64.75;45.50;;;;;;;;5059065;28;51076;-50
2023/02/21 03:57:47;;;;;;;;;63.75;44.75;;;;;;;;5059502;28;51855;-53
2023/02/21 04:00:32;;;;;;;;;68.00;48.50;;;;;;;;5053711;28;51122;-52
2023/02/21 04:03:16;;;;;;;;;64.25;44.50;;;;;;;;5059179;28;51243;-50
2023/02/21 04:06:02;;;;;;;;;63.25;46.00;;;;;;;;5059770;28;51075;-53
2023/02/21 04:08:47;;;;;;;;;64.75;46.25;;;;;;;;5055117;28;51179;-54
2023/02/21 04:11:31;;;;;;;;;64.75;46.25;;;;;;;;5050284;28;51624;-51
2023/02/21 04:14:15;;;;;;;;;71.25;48.75;;;;;;;;5048251;28;50990;-55
2023/02/21 04:17:00;;;;;;;;;70.00;47.50;;;;;;;;5047963;28;51106;-51
2023/02/21 04:19:44;;;;;;;;;75.25;49.25;;;;;;;;5064025;27;51164;-55
2023/02/21 04:22:29;;;;;;;;;65.75;48.25;;;;;;;;5085152;27;51751;-51
2023/02/21 04:25:13;;;;;;;;;70.75;51.00;;;;;;;;5085578;27;51321;-53
2023/02/21 04:27:58;;;;;;;;;62.50;42.00;;;;;;;;5081108;27;51011;-52
2023/02/21 04:30:42;;;;;;;;;71.25;49.50;;;;;;;;5080670;27;51421;-53
2023/02/21 04:33:27;;;;;;;;;67.75;46.75;;;;;;;;5080271;27;51091;-55
2023/02/21 04:36:11;;;;;;;;;70.00;48.50;;;;;;;;5082650;27;51118;-50
2023/02/21 04:38:55;;;;;;;;;69.25;49.50;;;;;;;;5082570;27;51137;-54
2023/02/21 04:41:40;;;;;;;;;76.00;52.00;;;;;;;;5078052;27;51075;-53
2023/02/21 04:44:24;;;;;;;;;67.25;50.75;;;;;;;;5102859;27;51141;-53
2023/02/21 04:47:09;;;;;;;;;71.00;52.25;;;;;;;;5103103;27;51468;-53
2023/02/21 04:49:53;;;;;;;;;80.00;57.00;;;;;;;;5102829;27;50979;-54
2023/02/21 04:52:39;;;;;;;;;70.25;51.00;;;;;;;;5083933;27;51117;-50
2023/02/21 04:55:24;;;;;;;;;68.00;50.00;;;;;;;;5082121;27;51439;-53
2023/02/21 04:58:08;;;;;;;;;72.00;50.75;;;;;;;;5082488;27;51153;-52
2023/02/21 05:00:52;;;;;;;;;84.25;57.75;;;;;;;;5061141;27;51599;-48
2023/02/21 05:03:37;;;;;;;;;73.25;52.75;;;;;;;;5075219;27;51090;-53
2023/02/21 05:06:22;;;;;;;;;75.50;52.00;;;;;;;;5074566;27;51134;-53
2023/02/21 05:09:06;;;;;;;;;68.00;48.50;;;;;;;;5069390;27;51370;-51
2023/02/21 05:11:51;;;;;;;;;70.75;50.50;;;;;;;;5078391;27;51732;-53
2023/02/21 05:14:38;;;;;;;;;72.50;52.00;;;;;;;;5081684;27;51118;-52
2023/02/21 05:17:24;;;;;;;;;69.75;51.75;;;;;;;;5076267;27;51066;-53
2023/02/21 05:20:10;;;;;;;;;71.75;52.00;;;;;;;;5077045;27;51031;-52
2023/02/21 05:22:54;;;;;;;;;79.00;52.50;;;;;;;;5080505;27;51185;-51
2023/02/21 05:25:39;;;;;;;;;72.00;50.25;;;;;;;;5076357;27;51638;-55
2023/02/21 05:28:23;;;;;;;;;72.75;52.00;;;;;;;;5081515;27;51234;-53
2023/02/21 05:31:08;;;;;;;;;72.50;54.00;;;;;;;;5079020;27;51121;-50
2023/02/21 05:33:52;;;;;;;;;74.25;53.50;;;;;;;;5074757;27;51545;-51
2023/02/21 05:36:36;;;;;;;;;76.00;54.75;;;;;;;;5081648;27;51096;-50
2023/02/21 05:39:21;;;;;;;;;77.25;56.75;;;;;;;;5078319;27;51050;-52
2023/02/21 05:42:06;;;;;;;;;74.00;54.25;;;;;;;;5079908;27;51008;-51
2023/02/21 05:44:50;;;;;;;;;76.25;53.25;;;;;;;;5079436;27;51626;-55
2023/02/21 05:47:35;;;;;;;;;76.00;53.75;;;;;;;;5081343;27;51166;-54
2023/02/21 05:50:19;;;;;;;;;74.50;54.00;;;;;;;;5077340;27;51517;-53
2023/02/21 05:53:04;;;;;;;;;73.75;55.00;;;;;;;;5084402;27;51076;-52
2023/02/21 05:55:49;;;;;;;;;73.00;53.50;;;;;;;;5081373;27;51033;-53
2023/02/21 05:58:33;;;;;;;;;69.25;51.00;;;;;;;;5076764;27;51190;-48
2023/02/21 06:01:17;;;;;;;;;74.75;52.25;;;;;;;;5081466;27;51672;-50
2023/02/21 06:04:02;;;;;;;;;72.75;51.50;;;;;;;;5080745;27;51168;-52
2023/02/21 06:06:46;;;;;;;;;67.50;50.50;;;;;;;;5079584;27;51161;-50
2023/02/21 06:09:31;;;;;;;;;74.75;53.25;;;;;;;;5078303;27;51136;-51
2023/02/21 06:12:15;;;;;;;;;74.50;57.00;;;;;;;;5080915;27;51067;-51
2023/02/21 06:15:00;;;;;;;;;77.50;59.75;;;;;;;;5080949;27;51679;-53
2023/02/21 06:17:44;;;;;;;;;76.25;53.00;;;;;;;;5076861;27;51398;-48
2023/02/21 06:20:28;;;;;;;;;75.00;55.00;;;;;;;;5072242;27;51165;-50
2023/02/21 06:23:13;;;;;;;;;79.25;58.25;;;;;;;;5073820;27;51426;-45
2023/02/21 06:25:57;;;;;;;;;78.25;58.75;;;;;;;;5078355;27;51085;-44
2023/02/21 06:28:41;;;;;;;;;90.25;68.75;;;;;;;;5080187;27;51202;-42
2023/02/21 06:31:26;;;;;;;;;78.25;64.50;;;;;;;;5080888;27;51233;-41
2023/02/21 06:34:11;;;;;;;;;78.50;53.25;;;;;;;;5071741;27;51324;-41
2023/02/21 06:36:55;;;;;;;;;71.75;50.75;;;;;;;;5079951;27;51086;-43
2023/02/21 06:39:40;;;;;;;;;67.00;48.75;;;;;;;;5080537;27;51166;-42
2023/02/21 06:42:24;;;;;;;;;82.75;59.50;;;;;;;;5075353;27;51129;-43
2023/02/21 06:47:54;;;;;;;;;77.50;57.00;;;;;;;;4997626;28;51549;-43
2023/02/21 06:50:38;;;;;;;;;77.00;57.50;;;;;;;;4996416;28;51694;-41
2023/02/21 06:53:22;;;;;;;;;79.50;56.25;;;;;;;;4982712;28;51488;-45
2023/02/21 06:56:07;;;;;;;;;75.50;55.00;;;;;;;;4995212;28;51344;-45
2023/02/21 06:58:51;;;;;;;;;78.75;59.25;;;;;;;;5008160;28;51817;-46
2023/02/21 07:01:35;;;;;;;;;84.50;65.00;;;;;;;;5000544;28;51231;-46
2023/02/21 07:04:20;;;;;;;;;77.75;59.00;;;;;;;;4996166;28;51721;-42
2023/02/21 07:07:04;;;;;;;;;74.00;56.50;;;;;;;;4995423;28;51596;-43
2023/02/21 07:09:48;;;;;;;;;73.75;55.75;;;;;;;;5017260;28;51176;-41
2023/02/21 07:12:32;;;;;;;;;80.25;61.50;;;;;;;;4997557;28;51536;-43
2023/02/21 07:15:16;;;;;;;;;70.00;51.50;;;;;;;;4996707;28;51671;-43
2023/02/21 07:18:00;;;;;;;;;72.25;51.25;;;;;;;;4996834;28;51172;-40
2023/02/21 07:20:45;;;;;;;;;77.25;55.25;;;;;;;;4996959;28;51146;-43
2023/02/21 07:23:29;;;;;;;;;76.00;58.50;;;;;;;;4996329;28;51504;-43
2023/02/21 07:26:14;;;;;;;;;77.00;56.50;;;;;;;;5074826;28;51175;-42
2023/02/21 07:28:58;;;;;;;;;78.25;56.25;;;;;;;;5074370;28;51031;-43
2023/02/21 07:31:42;;;;;;;;;77.00;53.75;;;;;;;;5072439;28;51278;-43
2023/02/21 07:34:27;;;;;;;;;72.00;51.25;;;;;;;;5080146;28;51069;-44
2023/02/21 07:37:12;;;;;;;;;69.75;50.75;;;;;;;;5079876;28;51356;-47
2023/02/21 07:39:56;;;;;;;;;74.50;58.00;;;;;;;;5072443;28;51693;-44
2023/02/21 07:42:44;;;;;;;;;72.00;57.00;;;;;;;;5079049;28;51055;-46
2023/02/21 07:45:28;;;;;;;;;70.75;52.75;;;;;;;;5078073;27;51069;-41
2023/02/21 07:48:13;;;;;;;;;73.00;55.25;;;;;;;;5077188;28;51478;-44
2023/02/21 07:50:57;;;;;;;;;81.00;58.50;;;;;;;;5078009;28;51003;-43
2023/02/21 07:53:41;;;;;;;;;80.50;61.50;;;;;;;;5079614;28;51169;-46
2023/02/21 07:56:26;;;;;;;;;73.00;56.75;;;;;;;;5073428;28;51135;-42
2023/02/21 07:59:10;;;;;;;;;69.75;52.25;;;;;;;;5075493;28;51237;-44
2023/02/21 08:01:56;;;;;;;;;77.75;55.75;;;;;;;;5071752;27;51403;-43
2023/02/21 08:04:41;;;;;;;;;73.00;57.75;;;;;;;;5083370;27;51754;-45
2023/02/21 08:07:26;;;;;;;;;75.50;60.25;;;;;;;;5083180;27;51125;-42
2023/02/21 08:10:12;;;;;;;;;76.75;61.50;;;;;;;;5073820;27;51198;-44
2023/02/21 08:12:56;;;;;;;;;90.75;66.50;;;;;;;;5082991;27;51238;-46
2023/02/21 08:15:51;;;;;;;;;78.25;61.75;;;;;;;;5020356;28;51167;-45
2023/02/21 08:18:35;;;;;;;;;75.25;55.75;;;;;;;;5019918;28;51622;-43
2023/02/21 08:21:19;;;;;;;;;75.75;54.25;;;;;;;;5019022;28;51260;-45
2023/02/21 08:24:03;;;;;;;;;71.25;49.75;;;;;;;;5020093;28;51090;-43
2023/02/21 08:26:47;;;;;;;;;81.00;55.25;;;;;;;;5022246;28;51189;-45
2023/02/21 08:29:31;;;;;;;;;71.50;54.00;;;;;;;;5018355;28;51213;-43
2023/02/21 08:32:16;;;;;;;;;76.00;53.75;;;;;;;;5016768;28;51220;-42
2023/02/21 08:35:00;;;;;;;;;70.00;51.50;;;;;;;;5018690;28;51175;-41
2023/02/21 08:37:45;;;;;;;;;75.50;54.75;;;;;;;;5019932;28;51444;-46
2023/02/21 08:40:30;;;;;;;;;69.75;51.25;;;;;;;;5019766;28;51145;-47
2023/02/21 08:43:14;;;;;;;;;72.75;52.75;;;;;;;;5019865;28;51663;-46
2023/02/21 08:45:58;;;;;;;;;74.00;53.25;;;;;;;;5018645;28;51161;-43
2023/02/21 08:48:43;;;;;;;;;73.00;51.00;;;;;;;;5018116;28;51082;-43
2023/02/21 08:51:27;;;;;;;;;73.00;54.25;;;;;;;;5027623;27;51421;-46
2023/02/21 08:54:12;;;;;;;;;73.00;55.25;;;;;;;;5076576;27;51056;-46
2023/02/21 08:56:57;;;;;;;;;70.50;50.50;;;;;;;;5069270;27;51111;-44
2023/02/21 08:59:43;;;;;;;;;75.50;56.00;;;;;;;;5070724;27;51215;-41
2023/02/21 09:02:29;;;;;;;;;70.50;53.25;;;;;;;;5074563;27;51067;-43
2023/02/21 09:05:15;;;;;;;;;75.00;53.50;;;;;;;;5077471;27;51179;-45
2023/02/21 09:08:00;;;;;;;;;68.75;49.75;;;;;;;;5082385;27;51109;-43
2023/02/21 09:10:46;;;;;;;;;66.00;49.25;;;;;;;;5078593;27;51192;-45
2023/02/21 09:13:33;;;;;;;;;68.00;46.00;;;;;;;;5078148;27;51121;-44
2023/02/21 09:16:17;;;;;;;;;68.75;49.00;;;;;;;;5082086;27;51162;-43
2023/02/21 09:19:03;;;;;;;;;70.75;50.50;;;;;;;;5082215;27;51694;-45
2023/02/21 09:21:54;;;;;;;;;67.50;48.00;;;;;;;;5075314;27;51103;-42
2023/02/21 09:24:38;;;;;;;;;68.50;48.50;;;;;;;;5076885;27;51182;-47
2023/02/21 09:27:35;;;;;;;;;72.50;48.25;;;;;;;;5081522;27;51447;-43
2023/02/21 09:30:22;;;;;;;;;70.00;48.50;;;;;;;;5079576;27;51129;-42
2023/02/21 09:33:06;;;;;;;;;69.50;48.75;;;;;;;;5076148;27;51574;-41
2023/02/21 09:35:52;;;;;;;;;69.50;49.25;;;;;;;;5076201;27;51199;-42
2023/02/21 09:38:40;;;;;;;;;66.50;47.75;;;;;;;;5074415;27;51209;-47
2023/02/21 09:41:32;;;;;;;;;71.50;52.50;;;;;;;;5081519;27;51142;-45
2023/02/21 09:44:22;;;;;;;;;70.75;47.00;;;;;;;;5079078;27;51652;-41
2023/02/21 09:47:09;;;;;;;;;68.25;48.75;;;;;;;;5066398;27;51049;-41
2023/02/21 09:49:59;;;;;;;;;67.75;48.50;;;;;;;;5073779;27;51159;-42
2023/02/21 09:52:50;;;;;;;;;65.25;43.75;;;;;;;;4988626;28;51189;-41
2023/02/21 09:55:39;;;;;;;;;67.00;45.75;;;;;;;;4995512;28;51204;-43
2023/02/21 09:58:24;;;;;;;;;67.75;47.00;;;;;;;;4995606;28;51129;-42
2023/02/21 10:01:27;;;;;;;;;71.75;47.50;;;;;;;;4988361;28;51238;-44
2023/02/21 10:04:19;;;;;;;;;72.25;46.25;;;;;;;;4988449;28;51214;-42
2023/02/21 10:07:13;;;;;;;;;71.00;48.50;;;;;;;;4979360;28;51149;-41
2023/02/21 10:10:15;;;;;;;;;66.00;47.75;;;;;;;;4981150;28;51993;-43
2023/02/21 10:13:02;;;;;;;;;59.25;42.75;;;;;;;;4987133;28;51139;-42
2023/02/21 10:15:54;;;;;;;;;65.00;44.75;;;;;;;;4986036;28;51073;-43
2023/02/21 10:19:01;;;;;;;;;65.75;46.00;;;;;;;;4993298;28;51105;-42
2023/02/21 10:21:46;;;;;;;;;67.50;46.00;;;;;;;;4982125;28;51791;-40
2023/02/21 10:24:31;;;;;;;;;61.50;45.50;;;;;;;;4977814;28;51576;-43
2023/02/21 10:27:23;;;;;;;;;63.25;43.75;;;;;;;;4978368;28;51242;-41
2023/02/21 10:30:09;;;;;;;;;65.00;45.25;;;;;;;;5045439;27;51209;-43
2023/02/21 10:32:54;;;;;;;;;63.25;45.25;;;;;;;;5075457;27;51069;-47
2023/02/21 10:35:39;;;;;;;;;63.50;43.75;;;;;;;;5080547;27;51696;-41
2023/02/21 10:38:24;;;;;;;;;58.75;43.25;;;;;;;;5080352;27;51153;-43
2023/02/21 10:41:09;;;;;;;;;64.75;45.25;;;;;;;;5081006;27;51145;-43
2023/02/21 10:43:57;;;;;;;;;68.25;47.75;;;;;;;;5077045;27;51416;-41
2023/02/21 10:46:48;;;;;;;;;62.00;44.50;;;;;;;;5061267;27;51161;-41
2023/02/21 10:49:35;;;;;;;;;69.25;46.25;;;;;;;;5080738;27;51567;-43
2023/02/21 10:52:20;;;;;;;;;61.00;45.00;;;;;;;;5075844;27;51102;-45
2023/02/21 10:55:18;;;;;;;;;65.25;46.00;;;;;;;;5077141;27;51104;-41
2023/02/21 10:58:09;;;;;;;;;64.50;46.00;;;;;;;;5080067;27;51175;-43
2023/02/21 11:00:53;;;;;;;;;65.25;44.00;;;;;;;;5078853;27;51709;-41
2023/02/21 11:03:42;;;;;;;;;60.75;43.75;;;;;;;;5078653;27;51267;-44
2023/02/21 11:06:29;;;;;;;;;66.00;43.50;;;;;;;;5080576;27;51221;-41
2023/02/21 11:09:26;;;;;;;;;66.50;41.25;;;;;;;;5080376;27;51114;-41
2023/02/21 11:12:29;;;;;;;;;57.75;40.25;;;;;;;;5076370;27;51011;-41
2023/02/21 11:15:17;;;;;;;;;67.50;45.50;;;;;;;;5078471;27;51206;-42
2023/02/21 11:18:04;;;;;;;;;68.25;46.75;;;;;;;;5080175;27;51509;-44
2023/02/21 11:20:48;;;;;;;;;66.50;44.50;;;;;;;;5079572;27;51012;-42
2023/02/21 11:23:32;;;;;;;;;66.75;46.25;;;;;;;;5073563;27;52749;-41
2023/02/21 11:26:17;;;;;;;;;63.50;42.50;;;;;;;;5080248;28;51188;-41
2023/02/21 11:29:09;;;;;;;;;60.75;43.50;;;;;;;;5083644;27;51201;-42
2023/02/21 11:31:54;;;;;;;;;66.25;45.25;;;;;;;;5074202;28;51104;-45
2023/02/21 11:34:45;;;;;;;;;67.00;43.50;;;;;;;;5076118;28;51001;-45
2023/02/21 11:37:31;;;;;;;;;66.75;44.50;;;;;;;;5073021;27;51181;-40
2023/02/21 11:40:22;;;;;;;;;61.25;44.75;;;;;;;;5078607;27;50976;-43
2023/02/21 11:43:09;;;;;;;;;59.75;43.00;;;;;;;;5084154;27;51020;-43
2023/02/21 11:45:59;;;;;;;;;65.00;43.75;;;;;;;;5080706;27;51137;-41
2023/02/21 11:48:43;;;;;;;;;64.50;44.25;;;;;;;;5072025;27;51151;-43
2023/02/21 11:51:38;;;;;;;;;61.00;41.00;;;;;;;;5077386;27;51627;-43
2023/02/21 11:54:25;;;;;;;;;67.00;46.25;;;;;;;;5075608;27;51190;-46
2023/02/21 11:57:12;;;;;;;;;64.75;44.00;;;;;;;;5084687;27;50986;-43
2023/02/21 12:00:15;;;;;;;;;58.00;41.25;;;;;;;;5084496;27;51083;-42
2023/02/21 12:02:59;;;;;;;;;62.50;41.25;;;;;;;;5082058;27;51303;-42
2023/02/21 12:05:53;;;;;;;;;62.75;41.00;;;;;;;;5080105;27;51728;-43
2023/02/21 12:08:36;;;;;;;;;55.25;38.50;;;;;;;;5084645;27;51225;-42
2023/02/21 12:11:30;;;;;;;;;60.75;43.25;;;;;;;;5082611;27;51905;-41
2023/02/21 12:14:23;;;;;;;;;60.50;43.25;;;;;;;;5079709;27;51518;-42
2023/02/21 12:17:19;;;;;;;;;69.00;46.75;;;;;;;;5076088;27;51616;-45
2023/02/21 12:20:07;;;;;;;;;62.75;44.50;;;;;;;;5090776;27;51161;-43
2023/02/21 12:22:54;;;;;;;;;64.50;44.50;;;;;;;;5082529;27;51123;-42
2023/02/21 12:26:04;;;;;;;;;59.75;43.25;;;;;;;;5080762;27;51215;-43
2023/02/21 12:28:55;;;;;;;;;60.25;42.75;;;;;;;;5083095;27;51453;-45
2023/02/21 12:31:58;;;;;;;;;66.00;42.00;;;;;;;;5081484;27;51607;-44
2023/02/21 12:34:48;;;;;;;;;62.50;42.75;;;;;;;;5079714;27;51114;-45
2023/02/21 12:38:09;;;;;;;;;63.75;44.50;;;;;;;;4984660;28;51454;-45
2023/02/21 12:40:59;;;;;;;;;58.00;38.75;;;;;;;;4997439;28;51040;-44
2023/02/21 12:44:12;;;;;;;;;60.50;43.75;;;;;;;;4988209;28;51850;-42
2023/02/21 12:49:51;;;;;;;;;67.75;47.00;;;;;;;;4932335;28;52813;-41
2023/02/21 12:52:57;;;;;;;;;61.25;45.00;;;;;;;;4941003;28;51602;-42
2023/02/21 12:55:46;;;;;;;;;61.50;43.75;;;;;;;;4940940;28;51209;-44
2023/02/21 12:58:58;;;;;;;;;68.75;45.25;;;;;;;;4921364;28;51767;-48
2023/02/21 13:01:46;;;;;;;;;64.50;43.75;;;;;;;;4921493;28;51190;-43
2023/02/21 13:04:39;;;;;;;;;62.75;42.50;;;;;;;;4921522;28;51398;-44
2023/02/21 13:07:38;;;;;;;;;62.00;43.00;;;;;;;;4921782;28;51219;-44
2023/02/21 13:10:26;;;;;;;;;59.25;40.25;;;;;;;;4917600;28;51166;-43
2023/02/21 13:13:16;;;;;;;;;67.50;44.00;;;;;;;;4984942;28;51102;-42
2023/02/21 13:16:01;;;;;;;;;60.75;41.75;;;;;;;;4998111;28;51136;-45
2023/02/21 13:18:49;;;;;;;;;67.25;47.00;;;;;;;;4999199;28;51554;-43
2023/02/21 13:21:51;;;;;;;;;65.00;43.25;;;;;;;;4959388;28;51268;-48
2023/02/21 13:24:35;;;;;;;;;60.75;44.25;;;;;;;;4958112;28;51260;-44
2023/02/21 13:27:25;;;;;;;;;67.00;44.50;;;;;;;;4972643;28;51135;-43
2023/02/21 13:30:29;;;;;;;;;64.25;43.75;;;;;;;;5007415;28;51522;-45
2023/02/21 13:33:31;;;;;;;;;62.50;43.25;;;;;;;;5019259;28;51594;-44
2023/02/21 13:36:31;;;;;;;;;61.00;43.00;;;;;;;;5018887;28;51609;-43
2023/02/21 13:39:36;;;;;;;;;60.75;42.25;;;;;;;;5000121;28;51078;-44
2023/02/21 13:42:23;;;;;;;;;59.00;42.00;;;;;;;;5000218;28;52129;-45
2023/02/21 13:45:07;;;;;;;;;60.75;43.75;;;;;;;;4999710;28;51206;-43
2023/02/21 13:47:51;;;;;;;;;60.50;43.75;;;;;;;;5012210;28;51249;-42
2023/02/21 13:50:38;;;;;;;;;60.25;41.75;;;;;;;;5012148;28;51169;-43
2023/02/21 13:53:24;;;;;;;;;67.25;46.25;;;;;;;;5018611;28;51197;-44
2023/02/21 13:56:08;;;;;;;;;65.75;45.50;;;;;;;;5054758;27;51279;-45
2023/02/21 13:59:13;;;;;;;;;56.00;41.00;;;;;;;;5079295;27;51310;-42
2023/02/21 14:02:19;;;;;;;;;63.25;42.00;;;;;;;;5073703;27;51142;-42
2023/02/21 14:05:04;;;;;;;;;58.00;43.75;;;;;;;;5068825;27;51167;-42
2023/02/21 14:07:55;;;;;;;;;61.50;43.75;;;;;;;;5076897;27;51135;-41
2023/02/21 14:10:42;;;;;;;;;60.00;43.00;;;;;;;;5074158;27;51405;-42
2023/02/21 14:13:41;;;;;;;;;66.25;43.00;;;;;;;;5082851;27;51152;-43
2023/02/21 14:16:29;;;;;;;;;63.50;41.75;;;;;;;;5081079;27;51180;-47
2023/02/21 14:19:23;;;;;;;;;61.25;41.50;;;;;;;;5081485;27;51014;-42
2023/02/21 14:22:20;;;;;;;;;63.75;43.75;;;;;;;;5072714;27;51031;-42
2023/02/21 14:25:06;;;;;;;;;62.75;42.75;;;;;;;;5068659;27;51153;-43
2023/02/21 14:27:54;;;;;;;;;62.75;41.00;;;;;;;;5076932;27;51760;-41
2023/02/21 14:30:38;;;;;;;;;61.00;41.25;;;;;;;;5080073;27;51163;-42
2023/02/21 14:33:26;;;;;;;;;61.00;43.25;;;;;;;;5074307;27;51148;-45
2023/02/21 14:36:13;;;;;;;;;60.75;44.75;;;;;;;;5080591;27;51409;-41
2023/02/21 14:38:58;;;;;;;;;62.25;43.75;;;;;;;;5080717;27;51216;-44
2023/02/21 14:41:42;;;;;;;;;63.50;43.50;;;;;;;;5079320;27;51194;-42
2023/02/21 14:44:44;;;;;;;;;63.00;43.25;;;;;;;;5071437;27;51124;-42
2023/02/21 14:47:45;;;;;;;;;60.50;41.50;;;;;;;;5075422;27;51473;-43
2023/02/21 14:50:42;;;;;;;;;59.50;41.75;;;;;;;;5080104;27;51486;-45
2023/02/21 14:53:26;;;;;;;;;68.00;45.25;;;;;;;;5068488;27;51210;-44
2023/02/21 14:56:20;;;;;;;;;60.75;43.25;;;;;;;;5070680;27;51154;-43
2023/02/21 14:59:16;;;;;;;;;62.25;43.50;;;;;;;;5074901;27;51057;-43
2023/02/21 15:02:15;;;;;;;;;61.50;43.50;;;;;;;;5073676;27;51105;-42
2023/02/21 15:05:07;;;;;;;;;63.50;43.75;;;;;;;;5076221;27;51105;-49
2023/02/21 15:07:51;;;;;;;;;61.50;40.75;;;;;;;;5072642;27;51118;-46
2023/02/21 15:10:40;;;;;;;;;61.00;39.75;;;;;;;;5081059;27;51078;-44
2023/02/21 15:13:24;;;;;;;;;59.50;43.75;;;;;;;;5073735;27;51338;-43
2023/02/21 15:16:10;;;;;;;;;53.50;40.50;;;;;;;;5079261;27;51196;-43
2023/02/21 15:18:59;;;;;;;;;60.50;40.25;;;;;;;;5077457;27;51540;-44
2023/02/21 15:21:43;;;;;;;;;61.50;42.75;;;;;;;;5096100;27;51130;-43
2023/02/21 15:24:34;;;;;;;;;62.50;43.75;;;;;;;;5082647;27;51105;-45
2023/02/21 15:27:19;;;;;;;;;63.25;43.50;;;;;;;;5085785;27;51145;-44
2023/02/21 15:30:06;;;;;;;;;66.50;43.75;;;;;;;;5094709;27;51245;-45
2023/02/21 15:32:57;;;;;;;;;54.75;34.00;;;;;;;;5079965;27;51448;-42
2023/02/21 15:35:52;;;;;;;;;65.00;44.50;;;;;;;;5080402;27;51107;-42
2023/02/21 15:38:42;;;;;;;;;62.00;45.50;;;;;;;;5077125;27;51447;-44
2023/02/21 15:41:28;;;;;;;;;69.25;45.00;;;;;;;;5079505;27;51086;-43
2023/02/21 15:44:22;;;;;;;;;63.50;42.00;;;;;;;;5079963;27;51620;-42
2023/02/21 15:47:06;;;;;;;;;67.25;44.25;;;;;;;;5077935;27;51126;-43
2023/02/21 15:50:00;;;;;;;;;61.75;43.25;;;;;;;;5079033;27;51114;-43
2023/02/21 15:52:50;;;;;;;;;61.75;43.00;;;;;;;;5079742;27;51059;-44
2023/02/21 15:55:34;;;;;;;;;62.75;42.25;;;;;;;;5085576;27;51130;-46
2023/02/21 15:58:26;;;;;;;;;67.00;46.00;;;;;;;;5096397;27;51177;-45
2023/02/21 16:01:10;;;;;;;;;59.25;42.75;;;;;;;;5089807;27;51149;-44
2023/02/21 16:04:12;;;;;;;;;64.25;43.25;;;;;;;;5079813;27;51246;-42
2023/02/21 16:06:57;;;;;;;;;66.75;45.00;;;;;;;;5057874;27;51124;-42
2023/02/21 16:09:45;;;;;;;;;63.50;43.50;;;;;;;;5079599;27;51073;-42
2023/02/21 16:12:33;;;;;;;;;58.75;41.75;;;;;;;;5079371;27;51280;-44
2023/02/21 16:15:18;;;;;;;;;64.25;43.75;;;;;;;;5095188;27;51170;-44
2023/02/21 16:18:10;;;;;;;;;58.50;42.00;;;;;;;;5070489;27;51027;-42
2023/02/21 16:21:00;;;;;;;;;66.25;46.25;;;;;;;;5072869;27;51076;-44
2023/02/21 16:23:45;;;;;;;;;65.00;44.25;;;;;;;;5080672;27;51177;-41
2023/02/21 16:26:29;;;;;;;;;43.50;32.25;;;;;;;;5082271;27;51177;-46
2023/02/21 16:29:13;;;;;;;;;61.25;44.75;;;;;;;;5084116;27;51487;-44
2023/02/21 16:31:57;;;;;;;;;62.75;41.00;;;;;;;;5082795;27;51130;-46
2023/02/21 16:34:42;;;;;;;;;61.50;43.50;;;;;;;;5083128;27;51161;-44
2023/02/21 16:37:26;;;;;;;;;57.00;42.00;;;;;;;;5082783;27;51123;-41
2023/02/21 16:40:12;;;;;;;;;61.50;43.50;;;;;;;;5083077;27;51103;-46
2023/02/21 16:42:56;;;;;;;;;67.50;45.25;;;;;;;;5082444;27;51409;-44
2023/02/21 16:45:41;;;;;;;;;65.50;43.25;;;;;;;;5054337;27;51644;-44
2023/02/21 16:48:31;;;;;;;;;63.00;42.00;;;;;;;;5082460;27;51526;-42
2023/02/21 16:51:16;;;;;;;;;61.75;42.25;;;;;;;;5082864;27;51217;-46
2023/02/21 16:54:01;;;;;;;;;62.50;41.75;;;;;;;;5087992;27;51562;-42
2023/02/21 16:56:47;;;;;;;;;56.75;42.25;;;;;;;;5083153;27;51159;-45
2023/02/21 16:59:32;;;;;;;;;58.50;40.00;;;;;;;;5085107;27;51576;-44
2023/02/21 17:02:16;;;;;;;;;63.25;45.75;;;;;;;;5081342;27;51157;-43
2023/02/21 17:05:01;;;;;;;;;60.50;43.75;;;;;;;;5082683;27;51075;-46
2023/02/21 17:07:46;;;;;;;;;68.00;45.00;;;;;;;;5082241;27;51156;-45
2023/02/21 17:10:31;;;;;;;;;63.50;42.00;;;;;;;;5080043;27;51599;-43
2023/02/21 17:13:15;;;;;;;;;66.50;44.00;;;;;;;;5082186;27;51120;-47
2023/02/21 17:16:00;;;;;;;;;67.00;43.75;;;;;;;;5082723;27;51085;-43
2023/02/21 17:18:44;;;;;;;;;64.75;45.75;;;;;;;;5069365;27;51120;-44
2023/02/21 17:21:56;;;;;;;;;67.75;43.25;;;;;;;;5077319;27;51177;-43
2023/02/21 17:24:51;;;;;;;;;59.25;42.25;;;;;;;;4985192;28;51287;-45
2023/02/21 17:27:36;;;;;;;;;64.50;44.25;;;;;;;;4984320;28;51223;-44
2023/02/21 17:30:23;;;;;;;;;62.25;44.75;;;;;;;;4983664;28;51247;-43
2023/02/21 17:33:08;;;;;;;;;64.25;43.50;;;;;;;;4986993;28;51089;-43
2023/02/21 17:35:52;;;;;;;;;65.00;45.25;;;;;;;;4979981;28;51701;-43
2023/02/21 17:38:36;;;;;;;;;59.75;43.50;;;;;;;;4984491;28;51205;-44
2023/02/21 17:41:20;;;;;;;;;68.00;45.25;;;;;;;;4987685;28;51012;-44
2023/02/21 17:44:05;;;;;;;;;57.00;40.00;;;;;;;;4988540;28;51079;-45
2023/02/21 17:46:50;;;;;;;;;66.75;45.00;;;;;;;;4990167;28;51127;-44
2023/02/21 17:49:35;;;;;;;;;66.00;46.00;;;;;;;;4983463;28;51181;-44
2023/02/21 17:52:19;;;;;;;;;56.25;38.75;;;;;;;;4992440;28;51173;-43
2023/02/21 17:55:06;;;;;;;;;65.00;44.25;;;;;;;;4982924;28;51256;-44
2023/02/21 17:57:52;;;;;;;;;64.00;45.75;;;;;;;;4985911;28;51108;-45
2023/02/21 18:00:49;;;;;;;;;69.00;45.50;;;;;;;;4984329;28;51215;-46
2023/02/21 18:03:50;;;;;;;;;67.50;46.00;;;;;;;;4931707;28;52090;-44
2023/02/21 18:06:34;;;;;;;;;64.25;43.75;;;;;;;;4923116;28;51135;-44
2023/02/21 18:09:19;;;;;;;;;64.50;46.25;;;;;;;;4918686;28;51311;-45
2023/02/21 18:12:03;;;;;;;;;59.25;45.75;;;;;;;;4919777;28;51232;-44
2023/02/21 18:14:47;;;;;;;;;64.50;44.00;;;;;;;;4918913;28;51532;-44
2023/02/21 18:17:31;;;;;;;;;67.25;46.25;;;;;;;;4918152;28;51230;-45
2023/02/21 18:20:16;;;;;;;;;66.50;46.75;;;;;;;;4922758;28;51045;-43
2023/02/21 18:23:02;;;;;;;;;66.00;46.00;;;;;;;;4937681;28;51190;-41
2023/02/21 18:25:46;;;;;;;;;63.50;46.25;;;;;;;;4935643;28;51220;-42
2023/02/21 18:28:30;;;;;;;;;63.50;46.75;;;;;;;;4937387;28;51054;-43
2023/02/21 18:31:15;;;;;;;;;69.50;46.00;;;;;;;;4938067;28;51154;-41
2023/02/21 18:34:02;;;;;;;;;62.75;44.75;;;;;;;;4945557;28;51191;-47
2023/02/21 18:36:50;;;;;;;;;63.25;45.75;;;;;;;;4974904;28;51095;-44